Flugplatz Uetersen/Heist

EDHE · 石勒苏益格-荷尔斯泰因, 德国

罗盘
风向 的 Uetersen/Heist Airport 9/27
风: 2 kt, 1 beaufort


2 kt
改变
0 2.000 4.000 6.000 8.000 10.000
FEW 500 ft
BKN 1.100 ft
OVC 5.500 ft
METAR EDHL 060450Z AUTO VRB02KT 9999 // FEW005/// BKN011/// OVC055/// 03/03 Q1016

METAR Uetersen/Heist Airport - EDHE

Uetersen/Heist Airport是,德国中的小机场。 该机场有一条跑道: 9/27. 该领域的国际民航组织标志是EDHE.

这份报告是针对2022年12月6日 05:50, 当地时间在Lübeck Blankensee Airport进行的。

机场观察

可变方向的风很小或没有风。

可见度为10 km 或者更多。

有几云在500 ft的高度, 碎云在1.100 ft的高度 和 乌云密布在5.500 ft的高度。 破损或更高的上限为1.100 ft。

温度为3 °C,阵风为1 °C。 露点为3 °C,相对湿度为100%。 海平面上的气压为1016 hPa (QNH)。

白天

今天,太阳从08:21升起,在16:02降落。 这适用于Uetersen/Heist Airport,世界夏令时可能有所不同。 当地时间与世界标准时间之间的时差为+1 小时。 当前,没有夏令时有效。

公司介绍

在这个机场,你可以找到飞行学校。 本场上唯一已知的公司是Flugschule Hamburg。

体会

到Vliegles.nl去找飞行课程,跳伞和其他飞行体验。 浏览页面,了解Uetersen/Heist Airport附近所有可用的活动。 你也可以使用搜索功能来寻找你所在地附近的特定飞行课程、跳伞或其他飞行体验。

跑道

Id 标题 侧风 逆风 侧风 %
9/27 090°-270° 2 kt 100 %

逆风成分最大的方向会被突出显示,并用于横风计算。 这并不一定意味着这个方向在使用。

乌云

500 ft FEW 几云
1.100 ft BKN 碎云
5.500 ft OVC 乌云密布

温度 & 天气

温度 3 °C
露点 3 °C
相对湿度 100%
风寒 1 °C
Kp-index 1 (0-9)

白天

日出
08:18 (2:16)
中午
12:08
日落
15:57

小工具

你想在你的网站上有一个关于Uetersen/Heist Airport的当前航空天气(METAR)的小部件吗?

显示HTML代码

我们和第三方通过cookies跟踪您在我们网站上的互联网行为。如果你继续,我们认为你同意我们的饼干政策